Time;durP1;ratioP1;P1;durP2;ratioP2;P2;SDS_P1;SDS_P2;PMS_P1;PMS_P2;Temp;Humidity;BMP_temperature;BMP_pressure;BME280_temperature;BME280_humidity;BME280_pressure;Samples;Min_cycle;Max_cycle;Signal;HPM_P1;HPM_P2
2022/04/01 01:13:57;;;;;;;16.03;14.10;;;3.80;99.90;;;;;;3906011;23;20575;-84
2022/04/01 01:15:57;;;;;;;15.23;12.83;;;3.70;99.90;;;;;;4052766;29;20577;-88
2022/04/01 01:17:58;;;;;;;15.33;13.70;;;3.60;99.90;;;;;;4038851;29;20254;-89
2022/04/01 01:19:59;;;;;;;18.43;14.53;;;3.60;99.90;;;;;;4054525;29;20177;-89
2022/04/01 01:22:00;;;;;;;16.13;13.47;;;3.60;99.90;;;;;;4038805;29;20174;-89
2022/04/01 01:24:03;;;;;;;15.23;13.63;;;3.60;99.90;;;;;;4038923;29;20202;-89
2022/04/01 01:26:05;;;;;;;14.73;12.20;;;3.60;99.90;;;;;;4038615;29;21539;-89
2022/04/01 01:28:06;;;;;;;14.07;12.00;;;3.60;99.90;;;;;;4038604;29;20185;-88
2022/04/01 01:30:08;;;;;;;11.37;10.20;;;3.50;99.90;;;;;;4053977;29;20181;-88
2022/04/01 01:32:12;;;;;;;11.10;9.90;;;3.30;99.90;;;;;;4038025;29;20746;-89
2022/04/01 01:34:12;;;;;;;10.13;9.13;;;3.20;99.90;;;;;;4038713;29;20268;-89
2022/04/01 01:36:13;;;;;;;11.53;9.07;;;3.10;99.90;;;;;;4054028;29;20208;-90
2022/04/01 01:38:17;;;;;;;9.23;8.33;;;3.10;99.90;;;;;;4053996;29;20567;-89
2022/04/01 01:40:19;;;;;;;9.93;8.27;;;3.10;99.90;;;;;;4053719;29;20195;-89
2022/04/01 01:42:20;;;;;;;10.03;8.97;;;3.00;99.90;;;;;;4038110;29;20166;-90
2022/04/01 01:44:22;;;;;;;10.80;9.70;;;3.00;99.90;;;;;;4053920;29;20638;-89
2022/04/01 01:46:23;;;;;;;10.50;9.47;;;3.00;99.90;;;;;;4038587;29;20200;-89
2022/04/01 01:48:24;;;;;;;10.23;9.23;;;2.90;99.90;;;;;;4053850;29;20686;-89
2022/04/01 01:55:05;;;;;;;11.50;10.03;;;2.80;99.90;;;;;;4053839;29;20180;-89
2022/04/01 01:57:06;;;;;;;10.27;9.23;;;2.90;99.90;;;;;;4069334;29;20200;-89
2022/04/01 01:59:11;;;;;;;11.53;10.23;;;2.80;99.90;;;;;;4038186;29;20217;-89
2022/04/01 02:01:12;;;;;;;10.00;8.77;;;2.80;99.90;;;;;;4038292;29;20173;-88
2022/04/01 02:03:12;;;;;;;11.33;9.33;;;2.80;99.90;;;;;;4038415;29;20176;-89
2022/04/01 02:05:16;;;;;;;10.90;9.80;;;2.70;99.90;;;;;;4053566;29;20701;-88
2022/04/01 02:07:17;;;;;;;10.90;9.80;;;2.70;99.90;;;;;;4053525;29;20197;-89
2022/04/01 02:09:18;;;;;;;10.40;8.77;;;2.70;99.90;;;;;;4053945;29;20279;-89
2022/04/01 02:11:21;;;;;;;9.97;8.97;;;2.70;99.90;;;;;;4053841;29;20333;-89
2022/04/01 02:13:27;;;;;;;10.80;8.07;;;2.70;99.90;;;;;;4053486;29;20577;-89
2022/04/01 02:15:28;;;;;;;8.80;7.83;;;2.60;99.90;;;;;;4053580;29;20193;-89
2022/04/01 02:17:28;;;;;;;9.93;8.00;;;2.60;99.90;;;;;;4053432;29;20193;-89
2022/04/01 02:19:31;;;;;;;9.07;8.17;;;2.60;99.90;;;;;;4053448;29;20180;-89
2022/04/01 02:21:31;;;;;;;8.87;7.97;;;2.60;99.90;;;;;;4069016;29;20324;-88
2022/04/01 02:23:34;;;;;;;8.40;7.30;;;2.60;99.90;;;;;;4037912;29;20670;-89
2022/04/01 02:25:36;;;;;;;7.80;7.00;;;2.50;99.90;;;;;;4038058;29;20178;-89
2022/04/01 02:27:38;;;;;;;6.90;6.20;;;2.60;99.90;;;;;;4053064;29;20684;-88
2022/04/01 02:29:38;;;;;;;7.37;6.07;;;2.60;99.90;;;;;;4053181;29;20244;-89
2022/04/01 02:32:03;;;;;;;7.80;7.00;;;2.60;99.90;;;;;;4053017;29;20177;-89
2022/04/01 02:34:32;;;;;;;8.67;6.03;;;2.50;99.90;;;;;;4057114;29;20225;-89
2022/04/01 02:36:33;;;;;;;5.97;5.37;;;2.50;99.90;;;;;;4052801;29;20540;-89
2022/04/01 02:38:34;;;;;;;6.07;5.47;;;2.50;99.90;;;;;;4037382;29;20189;-89
2022/04/01 02:40:36;;;;;;;7.03;5.33;;;2.50;99.90;;;;;;4053448;29;20180;-88
2022/04/01 02:42:38;;;;;;;8.00;5.47;;;2.50;99.90;;;;;;4053229;29;20181;-89
2022/04/01 02:44:39;;;;;;;6.60;5.80;;;2.60;99.90;;;;;;4037793;29;20169;-90
2022/04/01 02:46:43;;;;;;;7.97;5.57;;;2.60;99.90;;;;;;4037529;29;20261;-88
2022/04/01 02:48:44;;;;;;;6.57;5.30;;;2.50;99.90;;;;;;4052783;29;20220;-88
2022/04/01 02:51:00;;;;;;;6.93;5.00;;;2.50;99.90;;;;;;4053310;29;20177;-89
2022/04/01 02:53:01;;;;;;;6.53;5.00;;;2.50;99.90;;;;;;4052966;29;20277;-89
2022/04/01 02:55:03;;;;;;;5.97;5.07;;;2.50;99.90;;;;;;4037628;29;20225;-89
2022/04/01 02:57:04;;;;;;;6.43;4.90;;;2.40;99.90;;;;;;4037154;29;20258;-89
2022/04/01 02:59:09;;;;;;;6.23;5.27;;;2.40;99.90;;;;;;4037583;29;20177;-89
2022/04/01 03:01:11;;;;;;;6.30;4.93;;;2.30;99.90;;;;;;4052950;29;20221;-90
2022/04/01 03:03:12;;;;;;;6.67;5.30;;;2.30;99.90;;;;;;4068432;29;20219;-90
2022/04/01 03:05:13;;;;;;;7.60;5.20;;;2.30;99.90;;;;;;4037628;29;20719;-89
2022/04/01 03:07:15;;;;;;;7.17;5.27;;;2.30;99.90;;;;;;4052685;29;20236;-89
2022/04/01 03:09:16;;;;;;;6.37;5.00;;;2.30;99.90;;;;;;4052749;29;20793;-88
2022/04/01 03:11:25;;;;;;;7.07;5.87;;;2.30;99.90;;;;;;4053028;29;20598;-89
2022/04/01 03:13:26;;;;;;;6.80;6.03;;;2.30;99.90;;;;;;4052872;29;20668;-89
2022/04/01 03:15:47;;;;;;;7.57;6.77;;;2.30;99.90;;;;;;4066540;29;20203;-89
2022/04/01 03:18:09;;;;;;;8.60;6.63;;;2.20;99.90;;;;;;4052525;29;20188;-89
2022/04/01 03:20:14;;;;;;;8.50;7.03;;;2.20;99.90;;;;;;4053362;29;20294;-90
2022/04/01 03:22:16;;;;;;;7.77;6.90;;;2.20;99.90;;;;;;4052778;29;20225;-89
2022/04/01 03:24:18;;;;;;;7.87;6.80;;;2.20;99.90;;;;;;4052762;29;20220;-89
2022/04/01 03:26:20;;;;;;;7.93;6.83;;;2.10;99.90;;;;;;4052729;29;20197;-89
2022/04/01 03:28:28;;;;;;;7.23;6.23;;;2.10;99.90;;;;;;4038024;29;20346;-89
2022/04/01 03:30:35;;;;;;;8.77;6.60;;;2.10;99.90;;;;;;4052819;29;20690;-89
2022/04/01 03:32:37;;;;;;;8.10;7.00;;;2.00;99.90;;;;;;4052604;29;20242;-89
2022/04/01 03:34:38;;;;;;;6.33;5.57;;;2.00;99.90;;;;;;4037475;29;20682;-91
2022/04/01 03:36:39;;;;;;;8.20;6.80;;;2.00;99.90;;;;;;4037076;29;20294;-90
2022/04/01 03:38:40;;;;;;;7.70;6.77;;;1.90;99.90;;;;;;4037256;29;20566;-90
2022/04/01 03:40:49;;;;;;;7.50;6.30;;;2.00;99.90;;;;;;4052799;29;20268;-91
2022/04/01 03:42:51;;;;;;;8.97;7.50;;;2.00;99.90;;;;;;4037220;29;20170;-90
2022/04/01 03:44:53;;;;;;;7.97;6.87;;;2.00;99.90;;;;;;4037169;29;20648;-89
2022/04/01 03:47:24;;;;;;;10.10;7.20;;;2.00;99.90;;;;;;4039824;29;20197;-89
2022/04/01 03:49:27;;;;;;;11.07;7.77;;;2.10;99.90;;;;;;4068224;29;20222;-90
2022/04/01 03:51:30;;;;;;;8.90;7.67;;;2.00;99.90;;;;;;4037679;29;20265;-89
2022/04/01 03:53:32;;;;;;;8.47;7.03;;;2.00;99.90;;;;;;4037158;29;20193;-89
2022/04/01 03:55:41;;;;;;;9.53;7.03;;;2.00;99.90;;;;;;4054080;29;20173;-88
2022/04/01 03:57:55;;;;;;;7.07;6.00;;;1.90;99.90;;;;;;4055562;29;20180;-90
2022/04/01 04:00:19;;;;;;;9.90;7.27;;;1.90;99.90;;;;;;4055584;29;20229;-89
2022/04/01 04:02:24;;;;;;;8.43;6.93;;;1.90;99.90;;;;;;4055903;29;20192;-88
2022/04/01 04:04:25;;;;;;;9.83;6.70;;;2.00;99.90;;;;;;4055828;29;20173;-90
2022/04/01 04:06:26;;;;;;;8.10;6.67;;;2.00;99.90;;;;;;4055380;29;20296;-90
2022/04/01 04:08:27;;;;;;;7.50;6.53;;;2.00;99.90;;;;;;4040051;29;20208;-90
2022/04/01 04:10:30;;;;;;;8.07;6.83;;;1.90;99.90;;;;;;4055216;29;20173;-89
2022/04/01 04:12:56;;;;;;;9.47;6.80;;;1.90;99.90;;;;;;4042424;29;20237;-90
2022/04/01 04:14:59;;;;;;;9.13;7.00;;;1.90;99.90;;;;;;4039719;29;20185;-90
2022/04/01 04:17:09;;;;;;;8.30;6.37;;;1.90;99.90;;;;;;4055062;29;20263;-90
2022/04/01 04:19:19;;;;;;;8.27;6.47;;;1.80;99.90;;;;;;4039671;29;20221;-90
2022/04/01 04:21:29;;;;;;;9.27;7.43;;;1.80;99.90;;;;;;4040239;29;20265;-89
2022/04/01 04:23:47;;;;;;;10.77;7.20;;;1.80;99.90;;;;;;4040177;29;20177;-90
2022/04/01 04:26:15;;;;;;;7.67;6.33;;;1.70;99.90;;;;;;4040372;29;20173;-89
2022/04/01 04:28:26;;;;;;;9.60;7.30;;;1.70;99.90;;;;;;4055830;29;20630;-90
2022/04/01 04:30:48;;;;;;;9.20;8.00;;;1.70;99.90;;;;;;4056547;29;20690;-89
2022/04/01 04:33:19;;;;;;;10.90;8.37;;;1.70;99.90;;;;;;4055809;29;20601;-89
2022/04/01 04:35:21;;;;;;;9.33;7.03;;;1.70;99.90;;;;;;4054975;29;20184;-89
2022/04/01 04:37:26;;;;;;;9.50;7.80;;;1.70;99.90;;;;;;4039437;29;20621;-90
2022/04/01 04:39:32;;;;;;;11.43;8.40;;;1.70;99.90;;;;;;4039422;29;20285;-89
2022/04/01 04:41:34;;;;;;;9.70;7.87;;;1.60;99.90;;;;;;4039480;29;20180;-89
2022/04/01 04:43:44;;;;;;;8.77;7.70;;;1.60;99.90;;;;;;4025542;29;20283;-91
2022/04/01 04:45:49;;;;;;;8.47;7.57;;;1.60;99.90;;;;;;4054645;29;20169;-90
2022/04/01 04:47:50;;;;;;;8.87;7.17;;;1.60;99.90;;;;;;4054849;29;20180;-91
2022/04/01 04:49:53;;;;;;;8.77;7.33;;;1.60;99.90;;;;;;4054725;29;20296;-89
2022/04/01 04:51:56;;;;;;;8.80;7.90;;;1.60;99.90;;;;;;4039452;29;20237;-90
2022/04/01 04:54:01;;;;;;;8.97;7.97;;;1.70;99.90;;;;;;4054846;29;20173;-89
2022/04/01 04:56:04;;;;;;;9.33;8.30;;;1.60;99.90;;;;;;4054505;29;20252;-89
2022/04/01 04:58:09;;;;;;;9.80;8.17;;;1.60;99.90;;;;;;4054538;29;20542;-90
2022/04/01 05:00:16;;;;;;;10.00;8.57;;;1.60;99.90;;;;;;4054891;29;20580;-90
2022/04/01 05:03:11;;;;;;;9.27;8.10;;;1.50;99.90;;;;;;4057401;29;20177;-90
2022/04/01 05:05:27;;;;;;;11.43;8.80;;;1.60;99.90;;;;;;4070060;29;20271;-90
2022/04/01 05:07:50;;;;;;;8.33;7.37;;;1.60;99.90;;;;;;4053332;29;20200;-90
2022/04/01 05:10:36;;;;;;;11.50;9.20;;;1.60;99.90;;;;;;4067215;29;20200;-92
2022/04/01 05:12:59;;;;;;;11.13;9.40;;;1.60;99.90;;;;;;4038391;29;20284;-90
2022/04/01 05:15:30;;;;;;;11.63;9.47;;;1.50;99.90;;;;;;4053357;29;20196;-90
2022/04/01 05:17:52;;;;;;;12.27;9.13;;;1.50;99.90;;;;;;4054333;29;20276;-90
2022/04/01 05:19:59;;;;;;;13.07;10.33;;;1.50;99.90;;;;;;4039025;29;20173;-90
2022/04/01 05:22:08;;;;;;;12.73;10.07;;;1.40;99.90;;;;;;4038851;29;20330;-91
2022/04/01 05:24:32;;;;;;;14.07;11.30;;;1.40;99.90;;;;;;4040909;29;20185;-90
2022/04/01 05:26:40;;;;;;;12.07;10.07;;;1.40;99.90;;;;;;4039071;29;20221;-90
2022/04/01 05:28:51;;;;;;;14.07;11.90;;;1.40;99.90;;;;;;4054173;29;20208;-90
2022/04/01 05:31:08;;;;;;;14.07;12.57;;;1.40;99.90;;;;;;4054158;29;20177;-90
2022/04/01 05:33:15;;;;;;;13.10;11.10;;;1.40;99.90;;;;;;4038852;29;20173;-90
2022/04/01 05:35:19;;;;;;;15.87;12.90;;;1.40;99.90;;;;;;4038953;29;20184;-92
2022/04/01 05:37:24;;;;;;;15.37;13.17;;;1.40;99.90;;;;;;4038475;29;20197;-89
2022/04/01 05:39:28;;;;;;;14.40;12.63;;;1.30;99.90;;;;;;4038730;29;20208;-90
2022/04/01 05:41:34;;;;;;;15.13;11.23;;;1.30;99.90;;;;;;4039412;29;20165;-92
2022/04/01 05:43:35;;;;;;;15.70;11.17;;;1.20;99.90;;;;;;4038484;29;20180;-90
2022/04/01 05:45:56;;;;;;;17.57;14.17;;;1.20;99.90;;;;;;4067251;29;20216;-90
2022/04/01 05:47:58;;;;;;;21.97;14.27;;;1.20;99.90;;;;;;4038710;29;20188;-91
2022/04/01 05:50:01;;;;;;;18.47;14.83;;;1.30;99.90;;;;;;4054373;29;20245;-91
2022/04/01 05:52:02;;;;;;;18.27;13.27;;;1.20;99.90;;;;;;4069650;29;20541;-91
2022/04/01 05:54:06;;;;;;;11.80;8.90;;;1.20;99.90;;;;;;4054072;29;20669;-90
2022/04/01 05:56:09;;;;;;;19.10;15.90;;;1.30;99.90;;;;;;4038598;29;20687;-93
2022/04/01 05:58:10;;;;;;;20.33;14.90;;;1.20;99.90;;;;;;4038307;29;20726;-90
2022/04/01 06:00:12;;;;;;;19.27;15.33;;;1.20;99.90;;;;;;4053729;29;20184;-92
2022/04/01 06:02:26;;;;;;;20.33;16.23;;;1.20;99.90;;;;;;4053716;29;20217;-91
2022/04/01 06:04:58;;;;;;;21.43;16.00;;;1.10;99.90;;;;;;4053655;29;20216;-91
2022/04/01 06:07:26;;;;;;;20.33;16.10;;;1.10;99.90;;;;;;4053516;29;20204;-90
2022/04/01 06:09:42;;;;;;;18.03;14.63;;;1.20;99.90;;;;;;4038149;29;20213;-93
2022/04/01 06:11:58;;;;;;;19.07;15.23;;;1.10;99.90;;;;;;4053883;29;20189;-91
2022/04/01 06:15:24;;;;;;;17.80;15.57;;;1.10;99.90;;;;;;4053697;29;20181;-91
2022/04/01 06:18:08;;;;;;;19.20;15.07;;;1.10;99.90;;;;;;4021132;29;20186;-91
2022/04/01 06:20:13;;;;;;;20.23;16.70;;;1.10;99.90;;;;;;4053337;29;20193;-91
2022/04/01 06:22:15;;;;;;;18.87;14.80;;;1.10;99.90;;;;;;4037924;29;20674;-90
2022/04/01 06:24:33;;;;;;;19.63;14.93;;;1.10;99.90;;;;;;4038428;29;20658;-92
2022/04/01 06:26:42;;;;;;;19.20;15.57;;;1.10;99.90;;;;;;4037759;29;20197;-90
2022/04/01 06:28:59;;;;;;;17.93;14.37;;;1.10;99.90;;;;;;4037880;29;20212;-91
2022/04/01 06:31:05;;;;;;;17.43;15.00;;;1.10;99.90;;;;;;4053283;29;20173;-91
2022/04/01 06:33:15;;;;;;;19.10;16.17;;;1.10;99.90;;;;;;4037755;29;20185;-90
2022/04/01 06:35:55;;;;;;;18.27;14.60;;;1.10;99.90;;;;;;4053807;29;20814;-92
2022/04/01 06:38:02;;;;;;;18.70;16.00;;;1.10;99.90;;;;;;4053580;29;20188;-92
2022/04/01 06:40:06;;;;;;;19.17;16.87;;;1.10;99.90;;;;;;4037873;29;20594;-93
2022/04/01 06:42:22;;;;;;;19.87;11.70;;;1.00;99.90;;;;;;4038854;29;20185;-90
2022/04/01 06:44:26;;;;;;;16.30;13.67;;;1.00;99.90;;;;;;4068977;29;20180;-91
2022/04/01 06:46:48;;;;;;;19.30;15.17;;;1.00;99.90;;;;;;4062507;29;20201;-91
2022/04/01 06:48:50;;;;;;;19.37;16.10;;;1.00;99.90;;;;;;4052853;29;20321;-90
2022/04/01 06:51:11;;;;;;;19.40;15.13;;;1.00;99.90;;;;;;4066747;29;20208;-91
2022/04/01 06:53:30;;;;;;;19.63;15.57;;;1.00;99.90;;;;;;4053645;29;20219;-90
2022/04/01 06:56:04;;;;;;;24.77;17.00;;;1.00;99.90;;;;;;4063259;29;20177;-92
2022/04/01 06:58:11;;;;;;;21.80;16.73;;;1.00;99.90;;;;;;4052927;29;20261;-91
2022/04/01 07:00:19;;;;;;;20.07;16.17;;;0.90;99.90;;;;;;4038063;29;20197;-91
2022/04/01 07:02:20;;;;;;;22.80;16.73;;;1.00;99.90;;;;;;4037215;29;20185;-90
2022/04/01 07:04:21;;;;;;;21.83;15.43;;;1.00;99.90;;;;;;4052610;29;20181;-90
2022/04/01 07:06:22;;;;;;;23.47;16.63;;;1.00;99.90;;;;;;4053009;29;20189;-91
2022/04/01 07:08:22;;;;;;;21.93;16.90;;;1.00;99.90;;;;;;4053085;29;20208;-94
2022/04/01 07:10:23;;;;;;;23.40;18.93;;;1.00;99.90;;;;;;4037528;29;20181;-91
2022/04/01 07:12:24;;;;;;;21.90;14.77;;;1.00;99.90;;;;;;4037457;29;20176;-91
2022/04/01 07:14:27;;;;;;;21.40;16.63;;;1.00;99.90;;;;;;4053422;29;20196;-90
2022/04/01 07:16:28;;;;;;;21.83;17.30;;;1.00;99.90;;;;;;4037431;29;20197;-92
2022/04/01 07:18:29;;;;;;;23.17;18.20;;;1.00;99.90;;;;;;4052755;29;20268;-91
2022/04/01 07:20:30;;;;;;;21.53;16.60;;;1.00;99.90;;;;;;4037167;29;20635;-92
2022/04/01 07:22:31;;;;;;;20.80;16.73;;;1.00;99.90;;;;;;4053254;29;20232;-92
2022/04/01 07:24:32;;;;;;;22.13;17.13;;;1.00;99.90;;;;;;4037477;29;20169;-93
2022/04/01 07:26:32;;;;;;;20.43;16.33;;;1.00;99.90;;;;;;4037128;29;20205;-91
2022/04/01 07:28:33;;;;;;;18.60;15.13;;;1.00;99.90;;;;;;4052392;29;20214;-92
2022/04/01 07:30:34;;;;;;;18.70;14.87;;;1.00;99.90;;;;;;4054004;29;20180;-92
2022/04/01 07:32:37;;;;;;;20.13;15.37;;;1.00;99.90;;;;;;4056130;29;20193;-94
2022/04/01 07:34:40;;;;;;;22.10;15.23;;;1.00;99.90;;;;;;4056104;29;20214;-91
2022/04/01 07:36:41;;;;;;;19.77;13.93;;;1.00;99.90;;;;;;4040668;29;20218;-92
2022/04/01 07:38:42;;;;;;;17.77;14.73;;;1.10;99.90;;;;;;4071644;29;20168;-93
2022/04/01 07:40:44;;;;;;;16.50;12.47;;;1.10;99.90;;;;;;4056093;29;20566;-90
2022/04/01 07:42:45;;;;;;;19.43;14.10;;;1.10;99.90;;;;;;4055950;29;20177;-90
2022/04/01 07:44:49;;;;;;;15.93;12.30;;;1.10;99.90;;;;;;4040568;29;20173;-91
2022/04/01 07:46:51;;;;;;;16.87;12.83;;;1.10;99.90;;;;;;4055910;29;20380;-90
2022/04/01 07:48:52;;;;;;;14.27;12.57;;;1.10;99.90;;;;;;4040269;29;20327;-90
2022/04/01 07:50:53;;;;;;;14.30;11.43;;;1.10;99.90;;;;;;4040428;29;20288;-92
2022/04/01 07:52:54;;;;;;;13.03;10.70;;;1.10;99.90;;;;;;4040221;29;20178;-90
2022/04/01 07:54:55;;;;;;;13.17;10.47;;;1.00;99.90;;;;;;4055820;29;20347;-90
2022/04/01 07:56:56;;;;;;;12.13;10.13;;;1.00;99.90;;;;;;4040023;29;20202;-91
2022/04/01 07:58:58;;;;;;;12.57;9.13;;;1.10;99.90;;;;;;4055247;29;20597;-90
2022/04/01 08:00:59;;;;;;;9.90;8.20;;;1.10;99.90;;;;;;4040096;29;20238;-90
2022/04/01 08:03:00;;;;;;;11.17;8.97;;;1.10;99.90;;;;;;4055499;29;20185;-91
2022/04/01 08:05:00;;;;;;;10.60;8.43;;;1.10;99.90;;;;;;4055617;29;20735;-90
2022/04/01 08:07:01;;;;;;;10.23;8.77;;;1.10;99.90;;;;;;4055387;29;20239;-92
2022/04/01 08:09:02;;;;;;;10.47;7.70;;;1.10;99.90;;;;;;4055564;29;20221;-90
2022/04/01 08:11:03;;;;;;;10.97;8.13;;;1.10;99.90;;;;;;4039926;29;20221;-91
2022/04/01 08:13:04;;;;;;;10.93;7.33;;;1.20;99.90;;;;;;4039962;29;20178;-91
2022/04/01 08:15:06;;;;;;;10.93;8.30;;;1.10;99.90;;;;;;4040052;29;20742;-90
2022/04/01 08:17:11;;;;;;;9.37;7.70;;;1.10;99.90;;;;;;4039651;29;20198;-90
2022/04/01 08:19:12;;;;;;;14.60;7.43;;;1.10;99.90;;;;;;4039970;29;20182;-91
2022/04/01 08:21:15;;;;;;;8.67;6.50;;;1.10;99.90;;;;;;4039762;29;20209;-90
2022/04/01 08:23:16;;;;;;;9.07;7.13;;;1.10;99.90;;;;;;4055232;29;20333;-90
2022/04/01 08:25:17;;;;;;;7.87;6.33;;;1.10;99.90;;;;;;4039647;29;20181;-91
2022/04/01 08:27:17;;;;;;;6.70;5.93;;;1.10;99.90;;;;;;4070710;29;20231;-90
2022/04/01 08:29:18;;;;;;;8.70;6.93;;;1.10;99.90;;;;;;4054662;29;20204;-92
2022/04/01 08:31:20;;;;;;;8.03;6.60;;;1.10;99.90;;;;;;4039731;29;20189;-92
2022/04/01 08:33:20;;;;;;;8.30;6.30;;;1.20;99.90;;;;;;4039639;29;20182;-92
2022/04/01 08:35:21;;;;;;;10.00;6.60;;;1.20;99.90;;;;;;4054805;29;20181;-91
2022/04/01 08:37:22;;;;;;;8.67;6.53;;;1.20;99.90;;;;;;4039204;29;20243;-90
2022/04/01 08:39:23;;;;;;;8.67;5.50;;;1.20;99.90;;;;;;4070167;29;20172;-90
2022/04/01 08:41:24;;;;;;;9.30;5.70;;;1.10;99.90;;;;;;4054714;29;20705;-92
2022/04/01 08:43:37;;;;;;;8.80;5.97;;;1.20;99.90;;;;;;4054918;29;20184;-91
2022/04/01 08:45:38;;;;;;;8.83;5.90;;;1.20;99.90;;;;;;4039353;29;20272;-91
2022/04/01 08:47:39;;;;;;;7.47;5.87;;;1.20;99.90;;;;;;4039326;29;20242;-93
2022/04/01 08:49:39;;;;;;;8.93;6.10;;;1.20;99.90;;;;;;4054664;29;20215;-91
2022/04/01 08:51:40;;;;;;;8.40;6.13;;;1.20;99.90;;;;;;4054779;29;20183;-91
2022/04/01 08:53:44;;;;;;;6.60;5.43;;;1.20;99.90;;;;;;4039262;29;20174;-91
2022/04/01 08:55:47;;;;;;;8.93;5.90;;;1.30;99.90;;;;;;4054793;29;20240;-91
2022/04/01 08:57:48;;;;;;;7.90;5.70;;;1.30;99.90;;;;;;4054479;29;20705;-92
2022/04/01 08:59:48;;;;;;;9.83;6.10;;;1.40;99.90;;;;;;4054718;29;20185;-92
2022/04/01 09:01:49;;;;;;;6.40;5.50;;;1.30;99.90;;;;;;4054613;29;20199;-90
2022/04/01 09:03:52;;;;;;;7.70;4.83;;;1.40;99.90;;;;;;4054688;29;20562;-91
2022/04/01 09:05:56;;;;;;;7.27;5.20;;;1.40;99.90;;;;;;4054383;29;20184;-90
2022/04/01 09:08:00;;;;;;;8.60;5.60;;;1.50;99.90;;;;;;4038965;29;20184;-91
2022/04/01 09:10:05;;;;;;;7.70;5.33;;;1.50;99.90;;;;;;4038914;29;20217;-91
2022/04/01 09:12:08;;;;;;;7.13;5.73;;;1.50;99.90;;;;;;4038899;29;20182;-91
2022/04/01 09:14:21;;;;;;;8.10;5.40;;;1.50;99.90;;;;;;4038979;29;20169;-92
2022/04/01 09:16:27;;;;;;;7.30;4.93;;;1.50;99.90;;;;;;4039011;29;20201;-91
2022/04/01 09:18:42;;;;;;;8.63;5.70;;;1.50;99.90;;;;;;4039192;29;20228;-92
2022/04/01 09:20:50;;;;;;;7.30;5.03;;;1.50;99.90;;;;;;4039172;29;20181;-91
2022/04/01 09:22:57;;;;;;;8.10;4.77;;;1.60;99.90;;;;;;4038992;29;20227;-90
2022/04/01 09:25:13;;;;;;;5.73;4.77;;;1.50;99.90;;;;;;4039071;29;20186;-90
2022/04/01 09:27:14;;;;;;;9.63;5.50;;;1.50;99.90;;;;;;4038950;29;20197;-91
2022/04/01 09:29:17;;;;;;;7.03;4.90;;;1.60;99.90;;;;;;4054546;29;20220;-90
2022/04/01 09:31:18;;;;;;;6.33;3.97;;;1.60;99.90;;;;;;4038823;29;20666;-90
2022/04/01 09:33:19;;;;;;;6.53;4.90;;;1.60;99.90;;;;;;4039040;29;20177;-91
2022/04/01 09:35:23;;;;;;;8.23;5.37;;;1.60;99.90;;;;;;4054495;29;20658;-91
2022/04/01 09:37:39;;;;;;;5.50;4.10;;;1.70;99.90;;;;;;4038691;29;20205;-91
2022/04/01 09:39:43;;;;;;;5.70;4.67;;;1.70;99.90;;;;;;4038773;29;20172;-90
2022/04/01 09:41:47;;;;;;;8.80;5.13;;;1.70;99.90;;;;;;4038768;29;20201;-92
2022/04/01 09:43:48;;;;;;;6.77;4.47;;;1.70;99.90;;;;;;4038574;29;20181;-91
2022/04/01 09:45:49;;;;;;;5.37;4.53;;;1.70;99.90;;;;;;4054248;29;20662;-91
2022/04/01 09:48:01;;;;;;;9.97;5.17;;;1.70;99.90;;;;;;4038608;29;20264;-89
2022/04/01 09:50:09;;;;;;;7.70;5.07;;;1.70;99.90;;;;;;4038289;29;20217;-91
2022/04/01 09:52:11;;;;;;;8.73;5.00;;;1.70;99.90;;;;;;4038214;29;20181;-92
2022/04/01 09:54:12;;;;;;;6.27;5.03;;;1.80;99.90;;;;;;4037633;29;20186;-94
2022/04/01 09:56:13;;;;;;;7.87;5.03;;;1.80;99.90;;;;;;4038269;29;20202;-91
2022/04/01 09:58:16;;;;;;;6.63;4.37;;;1.80;99.90;;;;;;4038248;29;20185;-92
2022/04/01 10:00:17;;;;;;;7.03;4.43;;;1.80;99.90;;;;;;4038465;29;20181;-93
2022/04/01 10:02:18;;;;;;;7.93;4.93;;;1.80;99.90;;;;;;4053650;29;20184;-92
2022/04/01 10:04:19;;;;;;;8.03;5.27;;;1.90;99.90;;;;;;4038376;29;20174;-92
2022/04/01 10:06:20;;;;;;;6.83;5.00;;;1.90;99.90;;;;;;4053797;29;20195;-91
2022/04/01 10:08:24;;;;;;;7.20;4.47;;;1.80;99.90;;;;;;4038211;29;20222;-92
2022/04/01 10:10:25;;;;;;;7.43;5.30;;;1.80;99.90;;;;;;4053489;29;20232;-94
2022/04/01 10:12:30;;;;;;;9.27;4.57;;;1.80;99.90;;;;;;4037919;29;20178;-92
2022/04/01 10:14:31;;;;;;;7.80;5.30;;;1.80;99.90;;;;;;4037783;29;20189;-92
2022/04/01 10:16:35;;;;;;;8.80;5.03;;;1.80;99.90;;;;;;4038143;29;20205;-92
2022/04/01 10:18:40;;;;;;;6.83;4.60;;;1.90;99.90;;;;;;4038133;29;20186;-92
2022/04/01 10:20:41;;;;;;;7.50;4.53;;;1.90;99.90;;;;;;4038189;29;20216;-93
2022/04/01 10:22:42;;;;;;;7.47;5.20;;;1.90;99.90;;;;;;4053284;29;20255;-92
2022/04/01 10:25:06;;;;;;;6.57;4.90;;;1.90;99.90;;;;;;4038169;29;20173;-93
2022/04/01 10:27:14;;;;;;;10.23;4.70;;;1.90;99.90;;;;;;4053156;29;20213;-92
2022/04/01 10:29:16;;;;;;;7.80;4.60;;;1.90;99.90;;;;;;4053054;29;20232;-93
2022/04/01 10:31:18;;;;;;;7.93;4.97;;;1.90;99.90;;;;;;4053296;29;20177;-91
2022/04/01 10:33:38;;;;;;;8.40;5.40;;;1.90;99.90;;;;;;4037623;29;20181;-93
2022/04/01 10:35:39;;;;;;;7.07;4.67;;;1.80;99.90;;;;;;4053398;29;20177;-92
2022/04/01 10:37:39;;;;;;;7.00;4.03;;;1.80;99.90;;;;;;4053080;29;20791;-92
2022/04/01 10:39:51;;;;;;;6.23;4.00;;;1.90;99.90;;;;;;4053257;29;20240;-93
2022/04/01 10:42:11;;;;;;;5.53;4.43;;;1.80;99.90;;;;;;4037741;29;20241;-91
2022/04/01 10:44:11;;;;;;;7.60;4.63;;;1.80;99.90;;;;;;4037570;29;20197;-92
2022/04/01 10:46:15;;;;;;;5.73;4.13;;;1.80;99.90;;;;;;4053044;29;20201;-93
2022/04/01 10:53:34;;;;;;;7.33;4.50;;;1.90;99.90;;;;;;4053330;29;20188;-92
2022/04/01 10:55:35;;;;;;;6.17;3.90;;;1.90;99.90;;;;;;4038090;29;20203;-91
2022/04/01 10:57:43;;;;;;;7.20;4.13;;;1.90;99.90;;;;;;4068577;29;20196;-92
2022/04/01 10:59:46;;;;;;;5.03;3.73;;;1.90;99.90;;;;;;4037986;29;20177;-92
2022/04/01 11:02:04;;;;;;;5.20;3.50;;;1.90;99.90;;;;;;4053302;29;20169;-93
2022/04/01 11:04:25;;;;;;;5.37;3.43;;;2.00;99.90;;;;;;4054584;29;20189;-92
2022/04/01 11:06:27;;;;;;;5.67;3.23;;;1.90;99.90;;;;;;4053777;29;20693;-92
2022/04/01 11:08:28;;;;;;;5.43;2.67;;;2.00;99.90;;;;;;4038118;29;20277;-92
2022/04/01 11:10:32;;;;;;;7.10;3.00;;;1.90;99.90;;;;;;4069209;29;20187;-92
2022/04/01 11:12:39;;;;;;;7.77;3.00;;;1.90;99.90;;;;;;4056510;29;20177;-92
2022/04/01 11:17:06;;;;;;;5.73;3.23;;;2.00;99.90;;;;;;4064782;29;20216;-92
2022/04/01 11:19:18;;;;;;;8.30;3.30;;;2.10;99.90;;;;;;4039212;29;20180;-92
2022/04/01 11:21:30;;;;;;;8.30;2.63;;;2.10;99.90;;;;;;4053183;29;20227;-93
2022/04/01 11:23:31;;;;;;;6.07;2.87;;;2.10;99.90;;;;;;4038545;29;20177;-91
2022/04/01 11:25:39;;;;;;;4.87;2.80;;;2.10;99.90;;;;;;4069162;29;20255;-92
2022/04/01 11:27:51;;;;;;;5.47;3.00;;;2.10;99.90;;;;;;4052964;29;20192;-93
2022/04/01 11:30:14;;;;;;;6.83;3.00;;;2.30;99.90;;;;;;4052693;29;20212;-91
2022/04/01 11:32:18;;;;;;;7.20;3.00;;;2.30;99.90;;;;;;4037263;29;20173;-92
2022/04/01 11:34:18;;;;;;;5.50;2.70;;;2.40;99.90;;;;;;4052885;29;20203;-91
2022/04/01 11:36:19;;;;;;;4.50;2.50;;;2.40;99.90;;;;;;4052837;29;20284;-92
2022/04/01 11:38:22;;;;;;;4.20;2.70;;;2.50;99.90;;;;;;4037066;29;20280;-93
2022/04/01 11:40:26;;;;;;;4.50;2.50;;;2.50;99.90;;;;;;4037555;29;20249;-93
2022/04/01 11:42:27;;;;;;;5.07;2.67;;;2.50;99.90;;;;;;4052516;29;20619;-92
2022/04/01 11:44:28;;;;;;;3.60;2.40;;;2.50;99.90;;;;;;4037245;29;20257;-92
2022/04/01 11:46:29;;;;;;;5.90;3.37;;;2.60;99.90;;;;;;4052632;29;20264;-91
2022/04/01 11:48:34;;;;;;;5.73;2.90;;;2.60;99.90;;;;;;4052426;29;20174;-92
2022/04/01 11:50:35;;;;;;;5.10;2.80;;;2.60;99.90;;;;;;4037296;29;20208;-92
2022/04/01 11:52:47;;;;;;;7.60;3.27;;;2.70;99.90;;;;;;4052843;29;20169;-91
2022/04/01 11:54:48;;;;;;;7.37;2.60;;;2.80;99.90;;;;;;4037319;29;20174;-91
2022/04/01 11:56:53;;;;;;;5.13;3.03;;;2.90;99.90;;;;;;4036939;29;20574;-91
2022/04/01 11:59:02;;;;;;;4.07;2.73;;;2.90;99.90;;;;;;4052397;29;20209;-90
2022/04/01 12:01:03;;;;;;;5.27;2.53;;;3.00;99.90;;;;;;4036922;29;20173;-91
2022/04/01 12:03:04;;;;;;;6.47;3.30;;;3.00;99.90;;;;;;4068498;29;20285;-90
2022/04/01 12:05:06;;;;;;;4.03;2.70;;;3.10;99.90;;;;;;4052920;29;20256;-90
2022/04/01 12:09:33;;;;;;;6.90;3.07;;;3.00;99.90;;;;;;4052699;29;20273;-90
2022/04/01 12:11:41;;;;;;;4.53;1.97;;;3.00;99.90;;;;;;4053054;29;20185;-88
2022/04/01 12:13:49;;;;;;;6.90;3.00;;;3.10;99.90;;;;;;4037183;29;20185;-90
2022/04/01 12:15:52;;;;;;;4.20;2.33;;;3.10;99.90;;;;;;4052403;29;20191;-90
2022/04/01 12:17:53;;;;;;;4.60;2.67;;;3.10;99.90;;;;;;4040249;29;20181;-90
2022/04/01 12:20:11;;;;;;;4.37;2.53;;;3.10;99.90;;;;;;4070809;29;20185;-90
2022/04/01 12:22:11;;;;;;;4.20;2.53;;;3.10;99.90;;;;;;4039873;29;20190;-90
2022/04/01 12:24:12;;;;;;;3.77;2.20;;;3.20;99.90;;;;;;4055386;29;20180;-89
2022/04/01 12:26:13;;;;;;;5.03;2.70;;;3.10;99.90;;;;;;4055274;29;20233;-89
2022/04/01 12:28:16;;;;;;;4.03;1.83;;;3.20;99.90;;;;;;4039745;29;20243;-90